UGSB Airport Information

Runway Information
Runway 13 Length 7325 ft width 150 ft
Elevation 86 ft Threshold 0 ft Heading 131
Runway 31 Length 7325 ft Width 150 ft
Elevation 105 ft Threshold 0 ft Heading 311
Airport Frequencies
Type TWR Name TWR Frequency 120 MHZ
Airport Navaids
Type NDB Name Batumi Frequency 430 KHZ
Airport Weather Information & NOTAM
ADDS - METARS form results

(2128 UTC 11 April 2021)
Data provider http://aviationweather.gov/metar/data/
 
METAR text: UGSB 112100Z AUTO 13005KT 9999 OVC061 07/06 Q1022 R13/29//55 NOSIG
Conditions at: UGSB (BATUMI , GE) observed 2100 UTC 11 April 2021
Temperature: 7.0°C (45°F)
Dewpoint: 6.0°C (43°F) [RH = 93%]
Pressure (altimeter): 30.18 inches Hg (1022.0 mb)
Winds: from the SE (130 degrees) at 6 MPH (5 knots; 2.6 m/s)
Visibility: 6 or more miles (10+ km)
Ceiling: 6100 feet AGL
Clouds: overcast cloud deck at 6100 feet AGL
Weather: no significant weather observed at this time

METAR text: UGSB 112030Z AUTO 13007KT 9999 FEW043 OVC063 08/06 Q1022 R13/29//55 NOSIG
Conditions at: UGSB (BATUMI , GE) observed 2030 UTC 11 April 2021
Temperature: 8.0°C (46°F)
Dewpoint: 6.0°C (43°F) [RH = 87%]
Pressure (altimeter): 30.18 inches Hg (1022.0 mb)
Winds: from the SE (130 degrees) at 8 MPH (7 knots; 3.6 m/s)
Visibility: 6 or more miles (10+ km)
Ceiling: 6300 feet AGL
Clouds: few clouds at 4300 feet AGL
overcast cloud deck at 6300 feet AGL
Weather: no significant weather observed at this time

Forecast for: UGSB (BATUMI , GE)
Text: TAF UGSB 111700Z 1118/1218 13010KT 9999 -RA SCT025 BKN050 TX12/1211Z TN07/1203Z
Forecast period: 1800 UTC 11 April 2021 to 0700 UTC 12 April 2021
Forecast type: FROM: standard forecast or significant change
Winds: from the SE (130 degrees) at 12 MPH (10 knots; 5.1 m/s)
Visibility: 6 or more miles (10+ km)
Ceiling: 5000 feet AGL
Clouds: scattered clouds at 2500 feet AGL
broken clouds at 5000 feet AGL
Weather: -RA  (light rain)
Text: TEMPO 1118/1202 22007KT 4000 TSRA SCT012 BKN025CB
Forecast period: 1800 UTC 11 April 2021 to 0200 UTC 12 April 2021
Forecast type: TEMPORARY: The following changes expected for less than half the time period
Winds: from the SW (220 degrees) at 8 MPH (7 knots; 3.6 m/s)
Visibility: 2.49 miles (4.01 km)
Ceiling: 2500 feet AGL
Clouds: scattered clouds at 1200 feet AGL
broken clouds at 2500 feet AGL
Weather: TSRA  (rain associated with thunderstorm(s))
Text: BECMG 1207/1208 35007KT
Forecast period: 0700 to 1800 UTC 12 April 2021
Forecast type: BECOMING: Conditions expected to become as follows by 0800 UTC 12 April 2021
Winds: from the N (350 degrees) at 8 MPH (7 knots; 3.6 m/s)
Visibility: 6 or more miles (10+ km)
Ceiling: 5000 feet AGL
Clouds: scattered clouds at 2500 feet AGL
broken clouds at 5000 feet AGL
Weather: -RA  (light rain)